sensor_id;sensor_type;location;lat;lon;timestamp;P1;durP1;ratioP1;P2;durP2;ratioP2
67508;SDS011;54354;44.724;11.284;2023-02-20T00:01:44;119.30;;;66.35;;
67508;SDS011;54354;44.724;11.284;2023-02-20T00:04:11;114.28;;;64.22;;
67508;SDS011;54354;44.724;11.284;2023-02-20T00:06:36;112.40;;;64.95;;
67508;SDS011;54354;44.724;11.284;2023-02-20T00:09:02;113.32;;;64.90;;
67508;SDS011;54354;44.724;11.284;2023-02-20T00:11:27;118.70;;;66.90;;
67508;SDS011;54354;44.724;11.284;2023-02-20T00:13:54;114.18;;;64.57;;
67508;SDS011;54354;44.724;11.284;2023-02-20T00:16:19;114.68;;;63.97;;
67508;SDS011;54354;44.724;11.284;2023-02-20T00:18:45;111.50;;;62.28;;
67508;SDS011;54354;44.724;11.284;2023-02-20T00:21:10;120.93;;;67.60;;
67508;SDS011;54354;44.724;11.284;2023-02-20T00:23:36;125.38;;;67.65;;
67508;SDS011;54354;44.724;11.284;2023-02-20T00:26:02;119.70;;;64.93;;
67508;SDS011;54354;44.724;11.284;2023-02-20T00:28:27;112.70;;;64.30;;
67508;SDS011;54354;44.724;11.284;2023-02-20T00:30:54;124.90;;;68.50;;
67508;SDS011;54354;44.724;11.284;2023-02-20T00:33:20;112.05;;;63.45;;
67508;SDS011;54354;44.724;11.284;2023-02-20T00:35:47;119.22;;;66.18;;
67508;SDS011;54354;44.724;11.284;2023-02-20T00:38:13;121.55;;;67.20;;
67508;SDS011;54354;44.724;11.284;2023-02-20T00:40:38;121.05;;;64.82;;
67508;SDS011;54354;44.724;11.284;2023-02-20T00:43:04;119.38;;;64.22;;
67508;SDS011;54354;44.724;11.284;2023-02-20T00:45:29;115.28;;;65.70;;
67508;SDS011;54354;44.724;11.284;2023-02-20T00:47:55;115.22;;;63.65;;
67508;SDS011;54354;44.724;11.284;2023-02-20T00:50:22;118.88;;;64.22;;
67508;SDS011;54354;44.724;11.284;2023-02-20T00:52:49;117.22;;;64.07;;
67508;SDS011;54354;44.724;11.284;2023-02-20T00:55:16;114.70;;;62.75;;
67508;SDS011;54354;44.724;11.284;2023-02-20T00:57:44;116.28;;;64.70;;
67508;SDS011;54354;44.724;11.284;2023-02-20T01:00:14;108.13;;;62.40;;
67508;SDS011;54354;44.724;11.284;2023-02-20T01:02:43;114.25;;;63.88;;
67508;SDS011;54354;44.724;11.284;2023-02-20T01:05:09;112.90;;;63.90;;
67508;SDS011;54354;44.724;11.284;2023-02-20T01:07:34;111.25;;;62.33;;
67508;SDS011;54354;44.724;11.284;2023-02-20T01:10:00;115.05;;;63.75;;
67508;SDS011;54354;44.724;11.284;2023-02-20T01:12:26;112.80;;;63.63;;
67508;SDS011;54354;44.724;11.284;2023-02-20T01:14:51;116.53;;;64.28;;
67508;SDS011;54354;44.724;11.284;2023-02-20T01:17:17;114.53;;;65.35;;
67508;SDS011;54354;44.724;11.284;2023-02-20T01:19:42;110.78;;;62.00;;
67508;SDS011;54354;44.724;11.284;2023-02-20T01:22:08;113.35;;;64.15;;
67508;SDS011;54354;44.724;11.284;2023-02-20T01:24:34;113.47;;;62.60;;
67508;SDS011;54354;44.724;11.284;2023-02-20T01:26:59;114.13;;;63.33;;
67508;SDS011;54354;44.724;11.284;2023-02-20T01:29:25;114.40;;;61.08;;
67508;SDS011;54354;44.724;11.284;2023-02-20T01:31:51;112.53;;;62.80;;
67508;SDS011;54354;44.724;11.284;2023-02-20T01:34:17;116.63;;;63.83;;
67508;SDS011;54354;44.724;11.284;2023-02-20T01:36:44;116.38;;;63.38;;
67508;SDS011;54354;44.724;11.284;2023-02-20T01:39:11;119.72;;;65.60;;
67508;SDS011;54354;44.724;11.284;2023-02-20T01:41:37;112.03;;;60.65;;
67508;SDS011;54354;44.724;11.284;2023-02-20T01:44:02;120.70;;;62.88;;
67508;SDS011;54354;44.724;11.284;2023-02-20T01:48:54;118.07;;;61.13;;
67508;SDS011;54354;44.724;11.284;2023-02-20T01:51:24;118.82;;;63.25;;
67508;SDS011;54354;44.724;11.284;2023-02-20T01:53:51;123.25;;;66.10;;
67508;SDS011;54354;44.724;11.284;2023-02-20T01:56:17;116.15;;;64.47;;
67508;SDS011;54354;44.724;11.284;2023-02-20T01:58:43;119.88;;;64.82;;
67508;SDS011;54354;44.724;11.284;2023-02-20T02:01:11;114.13;;;61.25;;
67508;SDS011;54354;44.724;11.284;2023-02-20T02:03:38;108.30;;;61.80;;
67508;SDS011;54354;44.724;11.284;2023-02-20T02:06:08;108.28;;;60.83;;
67508;SDS011;54354;44.724;11.284;2023-02-20T02:08:38;117.80;;;62.35;;
67508;SDS011;54354;44.724;11.284;2023-02-20T02:13:34;120.43;;;64.00;;
67508;SDS011;54354;44.724;11.284;2023-02-20T02:24:35;111.82;;;64.25;;
67508;SDS011;54354;44.724;11.284;2023-02-20T02:30:01;109.93;;;61.95;;
67508;SDS011;54354;44.724;11.284;2023-02-20T02:43:34;112.78;;;64.80;;
67508;SDS011;54354;44.724;11.284;2023-02-20T02:46:21;111.25;;;64.50;;
67508;SDS011;54354;44.724;11.284;2023-02-20T02:48:56;116.60;;;66.85;;
67508;SDS011;54354;44.724;11.284;2023-02-20T02:51:28;116.57;;;63.50;;
67508;SDS011;54354;44.724;11.284;2023-02-20T02:54:07;114.53;;;65.88;;
67508;SDS011;54354;44.724;11.284;2023-02-20T02:56:34;117.30;;;67.57;;
67508;SDS011;54354;44.724;11.284;2023-02-20T02:59:02;112.70;;;65.15;;
67508;SDS011;54354;44.724;11.284;2023-02-20T03:01:30;124.38;;;68.03;;
67508;SDS011;54354;44.724;11.284;2023-02-20T03:03:59;116.13;;;64.65;;
67508;SDS011;54354;44.724;11.284;2023-02-20T03:06:29;117.15;;;65.07;;
67508;SDS011;54354;44.724;11.284;2023-02-20T03:09:00;115.22;;;66.50;;
67508;SDS011;54354;44.724;11.284;2023-02-20T03:11:30;117.28;;;67.15;;
67508;SDS011;54354;44.724;11.284;2023-02-20T03:19:27;114.40;;;66.63;;
67508;SDS011;54354;44.724;11.284;2023-02-20T03:21:57;115.10;;;65.18;;
67508;SDS011;54354;44.724;11.284;2023-02-20T03:24:27;116.65;;;68.25;;
67508;SDS011;54354;44.724;11.284;2023-02-20T03:26:56;119.10;;;67.93;;
67508;SDS011;54354;44.724;11.284;2023-02-20T03:29:26;117.07;;;68.85;;
67508;SDS011;54354;44.724;11.284;2023-02-20T03:31:59;132.73;;;71.10;;
67508;SDS011;54354;44.724;11.284;2023-02-20T03:34:49;119.13;;;65.60;;
67508;SDS011;54354;44.724;11.284;2023-02-20T03:37:35;130.57;;;69.22;;
67508;SDS011;54354;44.724;11.284;2023-02-20T03:40:24;127.80;;;67.93;;
67508;SDS011;54354;44.724;11.284;2023-02-20T03:43:11;128.75;;;69.13;;
67508;SDS011;54354;44.724;11.284;2023-02-20T03:45:46;116.50;;;65.93;;
67508;SDS011;54354;44.724;11.284;2023-02-20T03:48:18;119.20;;;66.03;;
67508;SDS011;54354;44.724;11.284;2023-02-20T03:50:47;117.35;;;65.90;;
67508;SDS011;54354;44.724;11.284;2023-02-20T03:53:40;122.30;;;66.63;;
67508;SDS011;54354;44.724;11.284;2023-02-20T03:56:09;120.18;;;67.95;;
67508;SDS011;54354;44.724;11.284;2023-02-20T03:58:41;118.68;;;67.13;;
67508;SDS011;54354;44.724;11.284;2023-02-20T04:01:09;124.18;;;69.72;;
67508;SDS011;54354;44.724;11.284;2023-02-20T04:03:40;115.38;;;67.57;;
67508;SDS011;54354;44.724;11.284;2023-02-20T04:06:09;121.43;;;70.27;;
67508;SDS011;54354;44.724;11.284;2023-02-20T04:08:38;116.55;;;66.03;;
67508;SDS011;54354;44.724;11.284;2023-02-20T04:11:27;115.85;;;64.57;;
67508;SDS011;54354;44.724;11.284;2023-02-20T04:13:59;115.45;;;65.47;;
67508;SDS011;54354;44.724;11.284;2023-02-20T04:16:27;113.18;;;65.30;;
67508;SDS011;54354;44.724;11.284;2023-02-20T04:18:53;114.15;;;66.90;;
67508;SDS011;54354;44.724;11.284;2023-02-20T04:21:26;113.55;;;67.20;;
67508;SDS011;54354;44.724;11.284;2023-02-20T04:24:01;105.18;;;64.53;;
67508;SDS011;54354;44.724;11.284;2023-02-20T04:26:30;108.40;;;66.25;;
67508;SDS011;54354;44.724;11.284;2023-02-20T04:28:56;114.70;;;65.40;;
67508;SDS011;54354;44.724;11.284;2023-02-20T04:31:22;111.57;;;64.88;;
67508;SDS011;54354;44.724;11.284;2023-02-20T04:33:49;110.45;;;66.35;;
67508;SDS011;54354;44.724;11.284;2023-02-20T04:36:19;113.90;;;66.35;;
67508;SDS011;54354;44.724;11.284;2023-02-20T04:38:45;119.55;;;67.82;;
67508;SDS011;54354;44.724;11.284;2023-02-20T04:41:13;111.20;;;66.57;;
67508;SDS011;54354;44.724;11.284;2023-02-20T04:43:40;111.95;;;66.43;;
67508;SDS011;54354;44.724;11.284;2023-02-20T04:46:05;112.10;;;66.32;;
67508;SDS011;54354;44.724;11.284;2023-02-20T04:48:32;105.47;;;64.47;;
67508;SDS011;54354;44.724;11.284;2023-02-20T04:51:00;111.13;;;64.20;;
67508;SDS011;54354;44.724;11.284;2023-02-20T04:53:25;109.13;;;64.78;;
67508;SDS011;54354;44.724;11.284;2023-02-20T04:55:51;115.45;;;67.32;;
67508;SDS011;54354;44.724;11.284;2023-02-20T04:58:20;119.30;;;66.75;;
67508;SDS011;54354;44.724;11.284;2023-02-20T05:00:50;115.22;;;64.95;;
67508;SDS011;54354;44.724;11.284;2023-02-20T05:03:15;113.45;;;64.95;;
67508;SDS011;54354;44.724;11.284;2023-02-20T05:05:41;115.03;;;64.20;;
67508;SDS011;54354;44.724;11.284;2023-02-20T05:08:07;123.30;;;68.18;;
67508;SDS011;54354;44.724;11.284;2023-02-20T05:10:33;120.18;;;66.78;;
67508;SDS011;54354;44.724;11.284;2023-02-20T05:13:00;122.80;;;68.30;;
67508;SDS011;54354;44.724;11.284;2023-02-20T05:15:26;121.28;;;67.85;;
67508;SDS011;54354;44.724;11.284;2023-02-20T05:17:52;124.43;;;67.32;;
67508;SDS011;54354;44.724;11.284;2023-02-20T05:20:18;116.72;;;66.63;;
67508;SDS011;54354;44.724;11.284;2023-02-20T05:22:44;131.48;;;71.70;;
67508;SDS011;54354;44.724;11.284;2023-02-20T05:25:10;124.43;;;68.97;;
67508;SDS011;54354;44.724;11.284;2023-02-20T05:27:36;130.20;;;69.25;;
67508;SDS011;54354;44.724;11.284;2023-02-20T05:30:02;126.13;;;69.30;;
67508;SDS011;54354;44.724;11.284;2023-02-20T05:32:29;130.32;;;70.18;;
67508;SDS011;54354;44.724;11.284;2023-02-20T05:34:55;130.52;;;70.93;;
67508;SDS011;54354;44.724;11.284;2023-02-20T05:37:21;130.85;;;69.20;;
67508;SDS011;54354;44.724;11.284;2023-02-20T05:39:48;138.45;;;71.05;;
67508;SDS011;54354;44.724;11.284;2023-02-20T05:42:14;130.60;;;71.07;;
67508;SDS011;54354;44.724;11.284;2023-02-20T05:44:40;140.55;;;73.15;;
67508;SDS011;54354;44.724;11.284;2023-02-20T05:47:06;130.48;;;69.38;;
67508;SDS011;54354;44.724;11.284;2023-02-20T05:49:32;145.98;;;71.47;;
67508;SDS011;54354;44.724;11.284;2023-02-20T05:51:59;138.32;;;70.47;;
67508;SDS011;54354;44.724;11.284;2023-02-20T05:54:25;146.85;;;72.28;;
67508;SDS011;54354;44.724;11.284;2023-02-20T05:56:51;150.88;;;73.10;;
67508;SDS011;54354;44.724;11.284;2023-02-20T05:59:18;148.75;;;72.80;;
67508;SDS011;54354;44.724;11.284;2023-02-20T06:01:45;145.55;;;71.60;;
67508;SDS011;54354;44.724;11.284;2023-02-20T06:04:11;147.25;;;70.78;;
67508;SDS011;54354;44.724;11.284;2023-02-20T06:06:38;147.25;;;72.40;;
67508;SDS011;54354;44.724;11.284;2023-02-20T06:09:05;151.80;;;73.70;;
67508;SDS011;54354;44.724;11.284;2023-02-20T06:11:33;158.80;;;73.50;;
67508;SDS011;54354;44.724;11.284;2023-02-20T06:13:59;160.13;;;73.70;;
67508;SDS011;54354;44.724;11.284;2023-02-20T06:16:25;150.48;;;73.43;;
67508;SDS011;54354;44.724;11.284;2023-02-20T06:18:52;166.70;;;77.72;;
67508;SDS011;54354;44.724;11.284;2023-02-20T06:21:18;154.10;;;75.18;;
67508;SDS011;54354;44.724;11.284;2023-02-20T06:23:47;153.40;;;71.88;;
67508;SDS011;54354;44.724;11.284;2023-02-20T06:26:14;152.32;;;72.07;;
67508;SDS011;54354;44.724;11.284;2023-02-20T06:28:40;163.20;;;76.60;;
67508;SDS011;54354;44.724;11.284;2023-02-20T06:31:07;158.13;;;75.00;;
67508;SDS011;54354;44.724;11.284;2023-02-20T06:33:33;154.10;;;74.53;;
67508;SDS011;54354;44.724;11.284;2023-02-20T06:35:59;152.48;;;74.30;;
67508;SDS011;54354;44.724;11.284;2023-02-20T06:38:25;158.40;;;77.15;;
67508;SDS011;54354;44.724;11.284;2023-02-20T06:40:52;164.77;;;76.93;;
67508;SDS011;54354;44.724;11.284;2023-02-20T06:43:17;164.93;;;76.50;;
67508;SDS011;54354;44.724;11.284;2023-02-20T06:45:43;160.68;;;75.22;;
67508;SDS011;54354;44.724;11.284;2023-02-20T06:48:09;155.32;;;75.13;;
67508;SDS011;54354;44.724;11.284;2023-02-20T06:50:35;158.73;;;74.32;;
67508;SDS011;54354;44.724;11.284;2023-02-20T06:53:00;152.27;;;72.28;;
67508;SDS011;54354;44.724;11.284;2023-02-20T06:55:26;157.90;;;73.50;;
67508;SDS011;54354;44.724;11.284;2023-02-20T06:57:52;158.90;;;74.60;;
67508;SDS011;54354;44.724;11.284;2023-02-20T07:00:17;158.48;;;73.68;;
67508;SDS011;54354;44.724;11.284;2023-02-20T07:02:43;160.63;;;73.40;;
67508;SDS011;54354;44.724;11.284;2023-02-20T07:05:10;163.70;;;73.82;;
67508;SDS011;54354;44.724;11.284;2023-02-20T07:07:36;165.25;;;74.95;;
67508;SDS011;54354;44.724;11.284;2023-02-20T07:10:02;165.13;;;76.85;;
67508;SDS011;54354;44.724;11.284;2023-02-20T07:12:30;153.00;;;72.75;;
67508;SDS011;54354;44.724;11.284;2023-02-20T07:14:57;150.68;;;72.80;;
67508;SDS011;54354;44.724;11.284;2023-02-20T07:17:23;159.80;;;74.97;;
67508;SDS011;54354;44.724;11.284;2023-02-20T07:19:48;162.15;;;75.05;;
67508;SDS011;54354;44.724;11.284;2023-02-20T07:22:14;161.80;;;76.22;;
67508;SDS011;54354;44.724;11.284;2023-02-20T07:24:40;153.95;;;73.50;;
67508;SDS011;54354;44.724;11.284;2023-02-20T07:27:06;141.15;;;70.18;;
67508;SDS011;54354;44.724;11.284;2023-02-20T07:29:35;140.55;;;70.72;;
67508;SDS011;54354;44.724;11.284;2023-02-20T07:32:01;139.88;;;71.45;;
67508;SDS011;54354;44.724;11.284;2023-02-20T07:34:27;147.77;;;71.38;;
67508;SDS011;54354;44.724;11.284;2023-02-20T07:36:53;161.55;;;76.20;;
67508;SDS011;54354;44.724;11.284;2023-02-20T08:48:58;148.77;;;74.25;;
67508;SDS011;54354;44.724;11.284;2023-02-20T08:51:24;148.93;;;71.40;;
67508;SDS011;54354;44.724;11.284;2023-02-20T08:53:50;156.05;;;73.45;;
67508;SDS011;54354;44.724;11.284;2023-02-20T08:56:17;155.82;;;71.43;;
67508;SDS011;54354;44.724;11.284;2023-02-20T08:58:43;147.43;;;67.80;;
67508;SDS011;54354;44.724;11.284;2023-02-20T09:01:09;151.38;;;69.55;;
67508;SDS011;54354;44.724;11.284;2023-02-20T09:03:34;161.52;;;71.47;;
67508;SDS011;54354;44.724;11.284;2023-02-20T09:06:03;151.75;;;70.60;;
67508;SDS011;54354;44.724;11.284;2023-02-20T09:08:29;144.88;;;65.50;;
67508;SDS011;54354;44.724;11.284;2023-02-20T09:10:55;156.57;;;70.10;;
67508;SDS011;54354;44.724;11.284;2023-02-20T09:13:20;146.38;;;67.85;;
67508;SDS011;54354;44.724;11.284;2023-02-20T09:15:45;150.73;;;68.70;;
67508;SDS011;54354;44.724;11.284;2023-02-20T09:18:12;149.82;;;68.05;;
67508;SDS011;54354;44.724;11.284;2023-02-20T09:20:39;145.32;;;65.05;;
67508;SDS011;54354;44.724;11.284;2023-02-20T09:23:05;144.43;;;65.82;;
67508;SDS011;54354;44.724;11.284;2023-02-20T09:25:31;153.85;;;66.95;;
67508;SDS011;54354;44.724;11.284;2023-02-20T09:27:58;138.50;;;63.67;;
67508;SDS011;54354;44.724;11.284;2023-02-20T09:30:23;139.10;;;64.20;;
67508;SDS011;54354;44.724;11.284;2023-02-20T09:32:49;140.75;;;64.45;;
67508;SDS011;54354;44.724;11.284;2023-02-20T09:35:19;138.43;;;65.30;;
67508;SDS011;54354;44.724;11.284;2023-02-20T09:37:49;130.60;;;61.97;;
67508;SDS011;54354;44.724;11.284;2023-02-20T09:40:15;135.52;;;63.47;;
67508;SDS011;54354;44.724;11.284;2023-02-20T09:45:32;140.90;;;64.25;;
67508;SDS011;54354;44.724;11.284;2023-02-20T09:48:11;136.20;;;63.07;;
67508;SDS011;54354;44.724;11.284;2023-02-20T09:50:54;135.63;;;62.67;;
67508;SDS011;54354;44.724;11.284;2023-02-20T09:53:28;134.77;;;60.75;;
67508;SDS011;54354;44.724;11.284;2023-02-20T09:55:58;129.68;;;61.00;;
67508;SDS011;54354;44.724;11.284;2023-02-20T10:01:28;125.50;;;57.08;;
67508;SDS011;54354;44.724;11.284;2023-02-20T10:03:55;128.52;;;59.15;;
67508;SDS011;54354;44.724;11.284;2023-02-20T10:06:27;117.18;;;55.60;;
67508;SDS011;54354;44.724;11.284;2023-02-20T10:08:55;124.53;;;59.33;;
67508;SDS011;54354;44.724;11.284;2023-02-20T10:16:55;107.88;;;51.35;;
67508;SDS011;54354;44.724;11.284;2023-02-20T10:19:30;101.95;;;51.55;;
67508;SDS011;54354;44.724;11.284;2023-02-20T10:30:17;100.93;;;51.65;;
67508;SDS011;54354;44.724;11.284;2023-02-20T10:35:40;99.07;;;50.75;;
67508;SDS011;54354;44.724;11.284;2023-02-20T10:38:12;92.47;;;47.63;;
67508;SDS011;54354;44.724;11.284;2023-02-20T10:40:50;98.60;;;48.60;;
67508;SDS011;54354;44.724;11.284;2023-02-20T10:43:27;86.43;;;47.13;;
67508;SDS011;54354;44.724;11.284;2023-02-20T10:48:54;82.55;;;45.65;;
67508;SDS011;54354;44.724;11.284;2023-02-20T10:51:33;106.43;;;50.37;;
67508;SDS011;54354;44.724;11.284;2023-02-20T10:54:07;97.32;;;50.90;;
67508;SDS011;54354;44.724;11.284;2023-02-20T10:56:39;100.45;;;50.60;;
67508;SDS011;54354;44.724;11.284;2023-02-20T10:59:22;95.15;;;50.58;;
67508;SDS011;54354;44.724;11.284;2023-02-20T11:01:55;96.47;;;51.53;;
67508;SDS011;54354;44.724;11.284;2023-02-20T11:04:33;94.15;;;48.55;;
67508;SDS011;54354;44.724;11.284;2023-02-20T11:07:11;105.57;;;49.53;;
67508;SDS011;54354;44.724;11.284;2023-02-20T11:09:40;95.93;;;47.97;;
67508;SDS011;54354;44.724;11.284;2023-02-20T11:12:06;93.93;;;49.20;;
67508;SDS011;54354;44.724;11.284;2023-02-20T11:17:05;95.50;;;49.65;;
67508;SDS011;54354;44.724;11.284;2023-02-20T11:19:47;94.30;;;49.00;;
67508;SDS011;54354;44.724;11.284;2023-02-20T11:22:15;96.40;;;49.08;;
67508;SDS011;54354;44.724;11.284;2023-02-20T11:24:45;99.75;;;47.47;;
67508;SDS011;54354;44.724;11.284;2023-02-20T11:27:20;94.90;;;47.97;;
67508;SDS011;54354;44.724;11.284;2023-02-20T11:29:55;94.60;;;46.92;;
67508;SDS011;54354;44.724;11.284;2023-02-20T11:32:27;88.07;;;48.67;;
67508;SDS011;54354;44.724;11.284;2023-02-20T11:37:49;86.30;;;46.95;;
67508;SDS011;54354;44.724;11.284;2023-02-20T11:40:35;87.38;;;47.20;;
67508;SDS011;54354;44.724;11.284;2023-02-20T11:43:15;83.75;;;47.95;;
67508;SDS011;54354;44.724;11.284;2023-02-20T11:46:21;86.60;;;46.92;;
67508;SDS011;54354;44.724;11.284;2023-02-20T11:51:50;82.90;;;46.47;;
67508;SDS011;54354;44.724;11.284;2023-02-20T11:57:00;83.38;;;46.38;;
67508;SDS011;54354;44.724;11.284;2023-02-20T11:59:37;79.22;;;43.67;;
67508;SDS011;54354;44.724;11.284;2023-02-20T12:04:45;86.63;;;45.47;;
67508;SDS011;54354;44.724;11.284;2023-02-20T12:07:26;78.05;;;44.05;;
67508;SDS011;54354;44.724;11.284;2023-02-20T12:09:55;77.85;;;42.85;;
67508;SDS011;54354;44.724;11.284;2023-02-20T12:12:26;72.45;;;42.75;;
67508;SDS011;54354;44.724;11.284;2023-02-20T12:14:54;77.88;;;43.00;;
67508;SDS011;54354;44.724;11.284;2023-02-20T12:22:42;75.22;;;42.00;;
67508;SDS011;54354;44.724;11.284;2023-02-20T12:30:26;64.72;;;36.63;;
67508;SDS011;54354;44.724;11.284;2023-02-20T12:38:49;62.95;;;37.80;;
67508;SDS011;54354;44.724;11.284;2023-02-20T12:49:41;59.53;;;35.45;;
67508;SDS011;54354;44.724;11.284;2023-02-20T13:00:46;58.80;;;35.38;;
67508;SDS011;54354;44.724;11.284;2023-02-20T13:03:16;56.53;;;34.42;;
67508;SDS011;54354;44.724;11.284;2023-02-20T13:05:49;55.60;;;34.70;;
67508;SDS011;54354;44.724;11.284;2023-02-20T13:11:09;58.88;;;34.50;;
67508;SDS011;54354;44.724;11.284;2023-02-20T13:16:36;55.42;;;33.83;;
67508;SDS011;54354;44.724;11.284;2023-02-20T13:19:43;53.28;;;33.15;;
67508;SDS011;54354;44.724;11.284;2023-02-20T13:22:19;54.97;;;32.58;;
67508;SDS011;54354;44.724;11.284;2023-02-20T13:24:45;57.15;;;34.05;;
67508;SDS011;54354;44.724;11.284;2023-02-20T13:27:25;54.47;;;33.28;;
67508;SDS011;54354;44.724;11.284;2023-02-20T13:32:26;56.65;;;34.13;;
67508;SDS011;54354;44.724;11.284;2023-02-20T13:35:30;56.27;;;33.73;;
67508;SDS011;54354;44.724;11.284;2023-02-20T13:38:09;54.33;;;34.30;;
67508;SDS011;54354;44.724;11.284;2023-02-20T13:40:36;58.70;;;34.35;;
67508;SDS011;54354;44.724;11.284;2023-02-20T13:45:48;54.42;;;34.15;;
67508;SDS011;54354;44.724;11.284;2023-02-20T13:48:39;58.55;;;34.75;;
67508;SDS011;54354;44.724;11.284;2023-02-20T13:59:11;59.70;;;35.67;;
67508;SDS011;54354;44.724;11.284;2023-02-20T14:04:26;62.40;;;36.50;;
67508;SDS011;54354;44.724;11.284;2023-02-20T14:06:53;57.53;;;34.70;;
67508;SDS011;54354;44.724;11.284;2023-02-20T14:09:24;64.82;;;37.00;;
67508;SDS011;54354;44.724;11.284;2023-02-20T14:12:00;70.95;;;38.30;;
67508;SDS011;54354;44.724;11.284;2023-02-20T14:14:42;62.47;;;37.08;;
67508;SDS011;54354;44.724;11.284;2023-02-20T14:17:14;62.15;;;37.05;;
67508;SDS011;54354;44.724;11.284;2023-02-20T14:19:47;59.30;;;35.67;;
67508;SDS011;54354;44.724;11.284;2023-02-20T14:24:46;63.45;;;36.03;;
67508;SDS011;54354;44.724;11.284;2023-02-20T14:27:25;61.80;;;36.40;;
67508;SDS011;54354;44.724;11.284;2023-02-20T14:30:05;68.97;;;39.30;;
67508;SDS011;54354;44.724;11.284;2023-02-20T14:32:48;61.75;;;36.25;;
67508;SDS011;54354;44.724;11.284;2023-02-20T14:35:28;60.30;;;36.85;;
67508;SDS011;54354;44.724;11.284;2023-02-20T14:41:38;54.50;;;32.65;;
67508;SDS011;54354;44.724;11.284;2023-02-20T14:44:16;53.20;;;31.95;;
67508;SDS011;54354;44.724;11.284;2023-02-20T14:46:43;52.80;;;32.58;;
67508;SDS011;54354;44.724;11.284;2023-02-20T14:51:37;55.05;;;33.15;;
67508;SDS011;54354;44.724;11.284;2023-02-20T14:56:46;56.67;;;33.45;;
67508;SDS011;54354;44.724;11.284;2023-02-20T14:59:22;59.90;;;35.60;;
67508;SDS011;54354;44.724;11.284;2023-02-20T15:01:51;54.08;;;32.47;;
67508;SDS011;54354;44.724;11.284;2023-02-20T15:04:19;56.83;;;35.90;;
67508;SDS011;54354;44.724;11.284;2023-02-20T15:06:48;59.20;;;35.47;;
67508;SDS011;54354;44.724;11.284;2023-02-20T15:09:16;58.85;;;35.00;;
67508;SDS011;54354;44.724;11.284;2023-02-20T15:14:16;52.35;;;33.90;;
67508;SDS011;54354;44.724;11.284;2023-02-20T15:16:45;58.55;;;34.88;;
67508;SDS011;54354;44.724;11.284;2023-02-20T15:22:03;58.13;;;34.22;;
67508;SDS011;54354;44.724;11.284;2023-02-20T15:24:37;61.03;;;35.45;;
67508;SDS011;54354;44.724;11.284;2023-02-20T15:27:07;56.28;;;35.13;;
67508;SDS011;54354;44.724;11.284;2023-02-20T15:29:33;55.97;;;34.27;;
67508;SDS011;54354;44.724;11.284;2023-02-20T15:32:00;53.17;;;34.25;;
67508;SDS011;54354;44.724;11.284;2023-02-20T15:34:35;58.77;;;35.10;;
67508;SDS011;54354;44.724;11.284;2023-02-20T15:40:05;60.33;;;34.83;;
67508;SDS011;54354;44.724;11.284;2023-02-20T15:42:51;60.42;;;33.85;;
67508;SDS011;54354;44.724;11.284;2023-02-20T15:45:21;56.90;;;35.10;;
67508;SDS011;54354;44.724;11.284;2023-02-20T15:47:48;56.05;;;35.63;;
67508;SDS011;54354;44.724;11.284;2023-02-20T15:50:13;60.35;;;34.80;;
67508;SDS011;54354;44.724;11.284;2023-02-20T15:52:39;57.08;;;34.60;;
67508;SDS011;54354;44.724;11.284;2023-02-20T15:55:05;59.63;;;33.75;;
67508;SDS011;54354;44.724;11.284;2023-02-20T15:57:32;55.92;;;33.53;;
67508;SDS011;54354;44.724;11.284;2023-02-20T15:59:57;62.40;;;35.05;;
67508;SDS011;54354;44.724;11.284;2023-02-20T16:02:23;58.17;;;35.40;;
67508;SDS011;54354;44.724;11.284;2023-02-20T16:04:49;59.05;;;34.45;;
67508;SDS011;54354;44.724;11.284;2023-02-20T16:07:16;55.47;;;33.22;;
67508;SDS011;54354;44.724;11.284;2023-02-20T16:09:44;53.55;;;33.53;;
67508;SDS011;54354;44.724;11.284;2023-02-20T16:12:20;56.95;;;34.33;;
67508;SDS011;54354;44.724;11.284;2023-02-20T16:14:49;57.53;;;34.15;;
67508;SDS011;54354;44.724;11.284;2023-02-20T16:17:25;55.58;;;34.38;;
67508;SDS011;54354;44.724;11.284;2023-02-20T16:19:52;56.65;;;33.95;;
67508;SDS011;54354;44.724;11.284;2023-02-20T16:22:18;63.70;;;35.25;;
67508;SDS011;54354;44.724;11.284;2023-02-20T16:24:44;60.65;;;34.33;;
67508;SDS011;54354;44.724;11.284;2023-02-20T16:27:16;57.78;;;34.03;;
67508;SDS011;54354;44.724;11.284;2023-02-20T16:29:44;58.80;;;35.10;;
67508;SDS011;54354;44.724;11.284;2023-02-20T16:34:46;61.88;;;34.50;;
67508;SDS011;54354;44.724;11.284;2023-02-20T16:37:12;59.45;;;33.00;;
67508;SDS011;54354;44.724;11.284;2023-02-20T16:39:38;58.83;;;34.20;;
67508;SDS011;54354;44.724;11.284;2023-02-20T16:42:13;61.75;;;35.63;;
67508;SDS011;54354;44.724;11.284;2023-02-20T16:44:44;57.38;;;34.35;;
67508;SDS011;54354;44.724;11.284;2023-02-20T16:47:11;62.47;;;35.00;;
67508;SDS011;54354;44.724;11.284;2023-02-20T16:49:38;55.92;;;33.95;;
67508;SDS011;54354;44.724;11.284;2023-02-20T16:52:24;57.38;;;33.05;;
67508;SDS011;54354;44.724;11.284;2023-02-20T16:54:52;62.35;;;35.53;;
67508;SDS011;54354;44.724;11.284;2023-02-20T16:57:19;53.25;;;33.90;;
67508;SDS011;54354;44.724;11.284;2023-02-20T16:59:52;61.47;;;36.05;;
67508;SDS011;54354;44.724;11.284;2023-02-20T17:02:21;62.15;;;35.63;;
67508;SDS011;54354;44.724;11.284;2023-02-20T17:04:49;70.60;;;36.63;;
67508;SDS011;54354;44.724;11.284;2023-02-20T17:07:15;59.50;;;34.80;;
67508;SDS011;54354;44.724;11.284;2023-02-20T17:09:41;63.65;;;36.22;;
67508;SDS011;54354;44.724;11.284;2023-02-20T17:12:08;67.03;;;36.58;;
67508;SDS011;54354;44.724;11.284;2023-02-20T17:14:34;71.63;;;37.15;;
67508;SDS011;54354;44.724;11.284;2023-02-20T17:16:59;66.65;;;37.42;;
67508;SDS011;54354;44.724;11.284;2023-02-20T17:19:24;67.72;;;36.15;;
67508;SDS011;54354;44.724;11.284;2023-02-20T17:21:51;63.33;;;35.95;;
67508;SDS011;54354;44.724;11.284;2023-02-20T17:24:17;63.75;;;35.80;;
67508;SDS011;54354;44.724;11.284;2023-02-20T17:26:43;68.80;;;37.75;;
67508;SDS011;54354;44.724;11.284;2023-02-20T17:29:09;62.20;;;36.13;;
67508;SDS011;54354;44.724;11.284;2023-02-20T17:31:36;77.47;;;37.35;;
67508;SDS011;54354;44.724;11.284;2023-02-20T17:34:03;72.00;;;37.80;;
67508;SDS011;54354;44.724;11.284;2023-02-20T17:36:30;66.50;;;36.45;;
67508;SDS011;54354;44.724;11.284;2023-02-20T17:38:56;65.05;;;37.42;;
67508;SDS011;54354;44.724;11.284;2023-02-20T17:41:23;66.82;;;36.80;;
67508;SDS011;54354;44.724;11.284;2023-02-20T17:43:50;73.13;;;38.08;;
67508;SDS011;54354;44.724;11.284;2023-02-20T17:46:16;63.10;;;36.45;;
67508;SDS011;54354;44.724;11.284;2023-02-20T17:48:42;70.22;;;37.35;;
67508;SDS011;54354;44.724;11.284;2023-02-20T17:51:08;72.72;;;38.78;;
67508;SDS011;54354;44.724;11.284;2023-02-20T17:53:33;76.95;;;38.50;;